createdAt,value
2018-06-14T00:00:42.785Z,0.00
2018-06-14T00:01:42.776Z,0.00
2018-06-14T00:02:42.758Z,0.00
2018-06-14T00:03:42.737Z,0.00
2018-06-14T00:04:42.871Z,0.00
2018-06-14T00:05:42.722Z,0.00
2018-06-14T00:06:42.705Z,0.00
2018-06-14T00:07:42.712Z,0.00
2018-06-14T00:08:42.729Z,0.00
2018-06-14T00:09:42.693Z,0.00
2018-06-14T00:10:42.658Z,0.00
2018-06-14T00:11:42.680Z,0.00
2018-06-14T00:12:42.632Z,0.00
2018-06-14T00:13:42.650Z,0.00
2018-06-14T00:14:42.608Z,0.00
2018-06-14T00:15:42.591Z,0.00
2018-06-14T00:16:42.622Z,0.00
2018-06-14T00:17:42.614Z,0.00
2018-06-14T00:18:42.568Z,0.00
2018-06-14T00:19:42.547Z,0.00
2018-06-14T00:20:42.541Z,0.00
2018-06-14T00:21:42.580Z,0.00
2018-06-14T00:22:42.521Z,0.00
2018-06-14T00:23:42.509Z,0.00
2018-06-14T00:24:42.505Z,0.00
2018-06-14T00:25:42.476Z,0.00
2018-06-14T00:26:42.469Z,0.00
2018-06-14T00:27:42.493Z,0.00
2018-06-14T00:28:42.435Z,0.00
2018-06-14T00:29:42.427Z,0.00
2018-06-14T00:30:42.419Z,0.00
2018-06-14T00:31:42.408Z,0.00
2018-06-14T00:32:42.461Z,0.00
2018-06-14T00:33:42.382Z,0.00
2018-06-14T00:34:42.371Z,0.00
2018-06-14T00:35:42.347Z,0.00
2018-06-14T00:36:42.344Z,0.00
2018-06-14T00:37:42.327Z,0.00
2018-06-14T00:38:42.367Z,0.00
2018-06-14T00:39:42.315Z,0.00
2018-06-14T00:40:42.308Z,0.00
2018-06-14T00:41:42.291Z,0.00
2018-06-14T00:42:42.265Z,0.00
2018-06-14T00:43:42.331Z,0.00
2018-06-14T00:44:42.239Z,0.00
2018-06-14T00:45:42.235Z,0.00
2018-06-14T00:46:42.217Z,0.00
2018-06-14T00:47:42.198Z,0.00
2018-06-14T00:48:42.194Z,0.00
2018-06-14T00:49:42.915Z,0.00
2018-06-14T00:50:42.160Z,0.00
2018-06-14T00:51:42.165Z,0.00
2018-06-14T00:52:42.187Z,0.00
2018-06-14T00:53:42.140Z,0.00
2018-06-14T00:54:42.120Z,0.00
2018-06-14T00:55:42.104Z,0.00
2018-06-14T00:56:42.089Z,0.00
2018-06-14T00:57:42.083Z,0.00
2018-06-14T00:58:42.100Z,0.00
2018-06-14T00:59:42.051Z,0.00
2018-06-14T01:00:42.051Z,0.00
2018-06-14T01:01:42.033Z,0.00
2018-06-14T01:02:42.049Z,0.00
2018-06-14T01:03:42.000Z,0.00
2018-06-14T01:04:42.001Z,0.00
2018-06-14T01:05:41.980Z,0.00
2018-06-14T01:06:41.969Z,0.00
2018-06-14T01:07:41.955Z,0.00
2018-06-14T01:08:41.947Z,0.00
2018-06-14T01:09:41.946Z,0.00
2018-06-14T01:10:41.932Z,0.00
2018-06-14T01:11:41.910Z,0.00
2018-06-14T01:12:41.902Z,0.00
2018-06-14T01:13:41.895Z,0.00
2018-06-14T01:14:41.879Z,0.00
2018-06-14T01:15:41.889Z,0.00
2018-06-14T01:16:41.848Z,0.00
2018-06-14T01:17:41.837Z,0.00
2018-06-14T01:18:41.834Z,0.00
2018-06-14T01:19:41.808Z,0.00
2018-06-14T01:20:41.851Z,0.00
2018-06-14T01:21:41.784Z,0.00
2018-06-14T01:22:41.774Z,0.00
2018-06-14T01:23:41.769Z,0.00
2018-06-14T01:24:41.743Z,0.00
2018-06-14T01:25:41.739Z,0.00
2018-06-14T01:26:41.801Z,0.00
2018-06-14T01:27:41.704Z,0.00
2018-06-14T01:28:41.706Z,0.00
2018-06-14T01:29:41.688Z,0.00
2018-06-14T01:30:41.673Z,0.00
2018-06-14T01:31:41.650Z,0.00
2018-06-14T01:32:41.655Z,0.00
2018-06-14T01:33:41.641Z,0.00
2018-06-14T01:34:41.630Z,0.00
2018-06-14T01:35:41.618Z,0.00
2018-06-14T01:36:41.597Z,0.00
2018-06-14T01:37:41.654Z,0.00
2018-06-14T01:38:41.569Z,0.00
2018-06-14T01:39:41.555Z,0.00
2018-06-14T01:40:41.548Z,0.00
2018-06-14T01:41:41.580Z,0.00
2018-06-14T01:42:41.520Z,0.00
2018-06-14T01:43:41.951Z,0.00
2018-06-14T01:44:41.496Z,0.00
2018-06-14T01:45:41.486Z,0.00
2018-06-14T01:46:41.473Z,0.00
2018-06-14T01:47:41.593Z,0.00
2018-06-14T01:48:41.450Z,0.00
2018-06-14T01:49:41.450Z,0.00
2018-06-14T01:50:41.419Z,0.00
2018-06-14T01:51:41.407Z,0.00
2018-06-14T01:52:41.392Z,0.00
2018-06-14T01:53:41.382Z,0.00
2018-06-14T01:54:41.474Z,0.00
2018-06-14T01:55:41.364Z,0.00
2018-06-14T01:56:41.348Z,0.00
2018-06-14T01:57:41.334Z,0.00
2018-06-14T01:58:41.324Z,0.00
2018-06-14T01:59:41.346Z,0.00
2018-06-14T02:00:41.382Z,0.00
2018-06-14T02:01:41.318Z,0.00
2018-06-14T02:02:41.294Z,0.00
2018-06-14T02:03:41.262Z,0.00
2018-06-14T02:04:41.253Z,0.00
2018-06-14T02:05:41.276Z,0.00
2018-06-14T02:06:41.221Z,0.00
2018-06-14T02:07:41.205Z,0.00
2018-06-14T02:08:41.198Z,0.00
2018-06-14T02:09:41.188Z,0.00
2018-06-14T02:10:41.300Z,0.00
2018-06-14T02:11:41.156Z,0.00
2018-06-14T02:12:41.147Z,0.00
2018-06-14T02:13:41.143Z,0.00
2018-06-14T02:14:41.135Z,0.00
2018-06-14T02:15:41.112Z,0.00
2018-06-14T02:16:41.098Z,0.00
2018-06-14T02:17:41.107Z,0.00
2018-06-14T02:18:41.071Z,0.00
2018-06-14T02:19:41.060Z,0.00
2018-06-14T02:20:41.042Z,0.00
2018-06-14T02:21:41.028Z,0.00
2018-06-14T02:22:41.085Z,0.00
2018-06-14T02:23:41.020Z,0.00
2018-06-14T02:24:41.020Z,0.00
2018-06-14T02:25:40.990Z,0.00
2018-06-14T02:26:41.000Z,0.00
2018-06-14T02:27:41.006Z,0.00
2018-06-14T02:28:40.954Z,4.00
2018-06-14T02:29:40.930Z,4.00
2018-06-14T02:30:41.019Z,0.00
2018-06-14T02:31:40.975Z,0.00
2018-06-14T02:32:40.895Z,0.00
2018-06-14T02:33:40.949Z,4.00
2018-06-14T02:34:40.875Z,0.00
2018-06-14T02:35:40.853Z,4.00
2018-06-14T02:36:40.842Z,4.00
2018-06-14T02:37:40.834Z,4.00
2018-06-14T02:38:40.835Z,4.00
2018-06-14T02:39:40.814Z,4.00
2018-06-14T02:40:40.778Z,4.00
2018-06-14T02:41:40.775Z,4.00
2018-06-14T02:42:40.867Z,4.00
2018-06-14T02:43:40.772Z,8.00
2018-06-14T02:44:41.086Z,8.00
2018-06-14T02:45:40.725Z,8.00
2018-06-14T02:46:40.713Z,8.00
2018-06-14T02:47:40.698Z,12.00
2018-06-14T02:48:40.696Z,8.00
2018-06-14T02:49:40.684Z,12.00
2018-06-14T02:50:40.692Z,12.00
2018-06-14T02:51:40.642Z,16.00
2018-06-14T02:52:40.668Z,16.00
2018-06-14T02:53:40.622Z,16.00
2018-06-14T02:54:40.628Z,16.00
2018-06-14T02:55:40.716Z,20.00
2018-06-14T02:56:40.617Z,20.00
2018-06-14T02:57:40.575Z,24.00
2018-06-14T02:58:40.554Z,28.00
2018-06-14T02:59:40.547Z,28.00
2018-06-14T03:00:40.523Z,32.00
2018-06-14T03:01:40.532Z,32.00
2018-06-14T03:02:40.519Z,32.00
2018-06-14T03:03:40.529Z,40.00
2018-06-14T03:04:40.488Z,40.00
2018-06-14T03:05:40.702Z,44.00
2018-06-14T03:06:40.495Z,48.00
2018-06-14T03:07:40.453Z,48.00
2018-06-14T03:08:40.659Z,52.00
2018-06-14T03:09:40.427Z,56.00
2018-06-14T03:10:40.419Z,60.00
2018-06-14T03:11:40.433Z,64.00
2018-06-14T03:12:40.384Z,64.00
2018-06-14T03:13:40.392Z,72.00
2018-06-14T03:14:40.357Z,76.00
2018-06-14T03:15:40.448Z,76.00
2018-06-14T03:16:40.390Z,84.00
2018-06-14T03:17:40.360Z,88.00
2018-06-14T03:18:40.632Z,92.00
2018-06-14T03:19:40.315Z,96.00
2018-06-14T03:20:40.326Z,100.00
2018-06-14T03:21:40.258Z,104.00
2018-06-14T03:22:40.256Z,112.00
2018-06-14T03:23:40.252Z,116.00
2018-06-14T03:24:40.260Z,124.00
2018-06-14T03:25:40.219Z,136.00
2018-06-14T03:26:40.196Z,144.00
2018-06-14T03:27:40.182Z,156.00
2018-06-14T03:28:40.215Z,164.00
2018-06-14T03:29:40.523Z,172.00
2018-06-14T03:30:40.162Z,172.00
2018-06-14T03:31:40.184Z,180.00
2018-06-14T03:32:40.131Z,184.00
2018-06-14T03:33:40.189Z,180.00
2018-06-14T03:34:40.093Z,184.00
2018-06-14T03:35:40.143Z,192.00
2018-06-14T03:36:40.090Z,196.00
2018-06-14T03:37:40.082Z,204.00
2018-06-14T03:38:40.044Z,208.00
2018-06-14T03:39:40.032Z,216.00
2018-06-14T03:40:40.159Z,220.00
2018-06-14T03:41:40.018Z,228.00
2018-06-14T03:42:40.062Z,232.00
2018-06-14T03:43:40.025Z,236.00
2018-06-14T03:44:40.024Z,240.00
2018-06-14T03:45:39.994Z,248.00
2018-06-14T03:46:39.956Z,260.00
2018-06-14T03:47:39.946Z,264.00
2018-06-14T03:48:39.948Z,272.00
2018-06-14T03:49:39.917Z,276.00
2018-06-14T03:50:40.024Z,284.00
2018-06-14T03:51:39.876Z,292.00
2018-06-14T03:52:39.870Z,296.00
2018-06-14T03:53:39.853Z,304.00
2018-06-14T03:54:39.846Z,308.00
2018-06-14T03:55:39.865Z,312.00
2018-06-14T03:56:39.986Z,320.00
2018-06-14T03:57:39.808Z,324.00
2018-06-14T03:58:39.916Z,332.00
2018-06-14T03:59:39.788Z,336.00
2018-06-14T04:00:39.772Z,344.00
2018-06-14T04:01:39.928Z,352.00
2018-06-14T04:02:39.902Z,360.00
2018-06-14T04:03:39.751Z,368.00
2018-06-14T04:04:39.755Z,368.00
2018-06-14T04:05:39.706Z,372.00
2018-06-14T04:06:39.709Z,380.00
2018-06-14T04:07:39.690Z,380.00
2018-06-14T04:08:39.665Z,388.00
2018-06-14T04:09:39.652Z,392.00
2018-06-14T04:10:39.643Z,392.00
2018-06-14T04:11:39.626Z,396.00
2018-06-14T04:12:39.642Z,404.00
2018-06-14T04:13:39.601Z,412.00
2018-06-14T04:14:39.707Z,416.00
2018-06-14T04:15:39.577Z,424.00
2018-06-14T04:16:39.607Z,428.00
2018-06-14T04:17:39.589Z,440.00
2018-06-14T04:18:39.601Z,452.00
2018-06-14T04:19:39.560Z,464.00
2018-06-14T04:20:39.524Z,468.00
2018-06-14T04:21:39.562Z,476.00
2018-06-14T04:22:39.839Z,476.00
2018-06-14T04:23:39.478Z,480.00
2018-06-14T04:24:39.474Z,480.00
2018-06-14T04:25:39.485Z,480.00
2018-06-14T04:26:39.664Z,484.00
2018-06-14T04:27:39.516Z,488.00
2018-06-14T04:28:39.459Z,492.00
2018-06-14T04:29:39.404Z,496.00
2018-06-14T04:30:39.381Z,496.00
2018-06-14T04:31:39.445Z,500.00
2018-06-14T04:32:39.348Z,500.00
2018-06-14T04:33:39.400Z,504.00
2018-06-14T04:34:39.339Z,504.00
2018-06-14T04:35:39.325Z,504.00
2018-06-14T04:36:39.304Z,504.00
2018-06-14T04:37:45.403Z,516.00
2018-06-14T04:38:39.283Z,520.00
2018-06-14T04:39:39.428Z,532.00
2018-06-14T04:40:39.262Z,540.00
2018-06-14T04:41:47.022Z,544.00
2018-06-14T04:42:39.238Z,552.00
2018-06-14T04:43:39.223Z,556.00
2018-06-14T04:44:39.231Z,568.00
2018-06-14T04:45:39.220Z,564.00
2018-06-14T04:46:39.194Z,568.00
2018-06-14T04:47:39.173Z,568.00
2018-06-14T04:48:39.152Z,572.00
2018-06-14T04:49:39.145Z,572.00
2018-06-14T04:50:39.169Z,584.00
2018-06-14T04:51:39.128Z,596.00
2018-06-14T04:52:39.109Z,604.00
2018-06-14T04:53:39.130Z,616.00
2018-06-14T04:54:39.090Z,616.00
2018-06-14T04:55:39.099Z,616.00
2018-06-14T04:56:39.101Z,612.00
2018-06-14T04:57:39.049Z,612.00
2018-06-14T04:58:39.045Z,616.00
2018-06-14T04:59:39.018Z,620.00
2018-06-14T05:00:39.012Z,632.00
2018-06-14T05:01:39.044Z,632.00
2018-06-14T05:02:38.993Z,644.00
2018-06-14T05:03:38.982Z,660.00
2018-06-14T05:04:38.955Z,668.00
2018-06-14T05:05:39.059Z,676.00
2018-06-14T05:06:39.019Z,680.00
2018-06-14T05:07:39.134Z,692.00
2018-06-14T05:08:39.062Z,704.00
2018-06-14T05:09:38.925Z,716.00
2018-06-14T05:10:38.898Z,720.00
2018-06-14T05:11:38.972Z,728.00
2018-06-14T05:12:38.958Z,724.00
2018-06-14T05:13:38.874Z,724.00
2018-06-14T05:14:38.846Z,732.00
2018-06-14T05:17:27.582Z,748.00
2018-06-14T05:18:27.140Z,756.00
2018-06-14T05:19:27.095Z,760.00
2018-06-14T05:20:27.092Z,760.00
2018-06-14T05:21:27.109Z,764.00
2018-06-14T05:22:27.342Z,776.00
2018-06-14T05:23:27.058Z,776.00
2018-06-14T05:24:27.073Z,796.00
2018-06-14T05:25:27.038Z,796.00
2018-06-14T05:26:27.097Z,796.00
2018-06-14T05:27:27.068Z,792.00
2018-06-14T05:28:26.992Z,788.00
2018-06-14T05:29:27.020Z,796.00
2018-06-14T05:30:26.978Z,800.00
2018-06-14T05:31:26.958Z,804.00
2018-06-14T05:32:26.951Z,796.00
2018-06-14T05:33:26.955Z,804.00
2018-06-14T05:34:26.923Z,808.00
2018-06-14T05:35:26.926Z,820.00
2018-06-14T05:36:27.915Z,828.00
2018-06-14T05:37:26.881Z,820.00
2018-06-14T05:38:26.902Z,852.00
2018-06-14T05:39:26.855Z,864.00
2018-06-14T05:40:26.842Z,864.00
2018-06-14T05:41:26.838Z,876.00
2018-06-14T05:42:26.866Z,888.00
2018-06-14T05:43:26.816Z,876.00
2018-06-14T05:44:27.057Z,896.00
2018-06-14T05:45:26.788Z,904.00
2018-06-14T05:46:26.787Z,916.00
2018-06-14T05:47:26.770Z,924.00
2018-06-14T05:48:26.791Z,924.00
2018-06-14T05:49:26.744Z,952.00
2018-06-14T05:50:26.741Z,984.00
2018-06-14T05:51:26.712Z,996.00
2018-06-14T05:52:26.720Z,1004.00
2018-06-14T05:53:26.693Z,1004.00
2018-06-14T05:54:26.685Z,1004.00
2018-06-14T05:55:26.704Z,1004.00
2018-06-14T05:56:26.661Z,1016.00
2018-06-14T05:57:26.642Z,1016.00
2018-06-14T05:58:26.630Z,1004.00
2018-06-14T05:59:26.660Z,1000.00
2018-06-14T06:00:26.629Z,1004.00
2018-06-14T06:01:26.631Z,1012.00
2018-06-14T06:02:26.599Z,1012.00
2018-06-14T06:03:26.587Z,1012.00
2018-06-14T06:04:26.925Z,1008.00
2018-06-14T06:05:26.562Z,1032.00
2018-06-14T06:06:26.544Z,1040.00
2018-06-14T06:07:26.527Z,1052.00
2018-06-14T06:09:02.857Z,1064.00
2018-06-14T06:09:26.508Z,1088.00
2018-06-14T06:10:26.498Z,1104.00
2018-06-14T06:11:26.519Z,1112.00
2018-06-14T06:12:26.474Z,1112.00
2018-06-14T06:13:26.497Z,1108.00
2018-06-14T06:14:26.457Z,1112.00
2018-06-14T06:15:26.509Z,1120.00
2018-06-14T06:16:26.433Z,1124.00
2018-06-14T06:17:26.411Z,1132.00
2018-06-14T06:18:26.403Z,1124.00
2018-06-14T06:19:26.398Z,1152.00
2018-06-14T06:20:27.180Z,1168.00
2018-06-14T06:21:26.612Z,1164.00
2018-06-14T06:22:26.360Z,1172.00
2018-06-14T06:23:26.402Z,1184.00
2018-06-14T06:24:26.331Z,1220.00
2018-06-14T06:25:26.328Z,1236.00
2018-06-14T06:26:26.447Z,1260.00
2018-06-14T06:27:26.336Z,1252.00
2018-06-14T06:28:26.308Z,1252.00
2018-06-14T06:29:26.273Z,1256.00
2018-06-14T06:30:26.273Z,1252.00
2018-06-14T06:31:26.258Z,1272.00
2018-06-14T06:32:26.254Z,1276.00
2018-06-14T06:33:26.368Z,1264.00
2018-06-14T06:34:26.232Z,1260.00
2018-06-14T06:35:26.204Z,1308.00
2018-06-14T06:36:26.205Z,1328.00
2018-06-14T06:37:31.418Z,1364.00
2018-06-14T06:38:26.538Z,1368.00
2018-06-14T06:39:26.185Z,1404.00
2018-06-14T06:40:26.164Z,1416.00
2018-06-14T06:41:26.149Z,1460.00
2018-06-14T06:42:26.136Z,1492.00
2018-06-14T06:43:26.119Z,1500.00
2018-06-14T06:44:27.081Z,1500.00
2018-06-14T06:45:26.111Z,1500.00
2018-06-14T06:46:26.134Z,1508.00
2018-06-14T06:47:26.196Z,1484.00
2018-06-14T06:48:26.120Z,1460.00
2018-06-14T06:49:26.054Z,1452.00
2018-06-14T06:50:26.047Z,1512.00
2018-06-14T06:51:26.053Z,1508.00
2018-06-14T06:52:26.031Z,1564.00
2018-06-14T06:53:26.061Z,1604.00
2018-06-14T06:54:26.028Z,1580.00
2018-06-14T06:55:26.331Z,1632.00
2018-06-14T06:56:25.977Z,1600.00
2018-06-14T06:57:25.978Z,1608.00
2018-06-14T06:58:25.961Z,1620.00
2018-06-14T06:59:25.957Z,1764.00
2018-06-14T07:00:26.098Z,1776.00
2018-06-14T07:01:25.950Z,1820.00
2018-06-14T07:02:25.913Z,1784.00
2018-06-14T07:03:25.911Z,1796.00
2018-06-14T07:04:25.964Z,1792.00
2018-06-14T07:05:25.897Z,1860.00
2018-06-14T07:06:25.953Z,1856.00
2018-06-14T07:07:25.873Z,1872.00
2018-06-14T07:08:25.864Z,1852.00
2018-06-14T07:09:25.857Z,1820.00
2018-06-14T07:10:25.834Z,1852.00
2018-06-14T07:11:26.007Z,1940.00
2018-06-14T07:12:25.827Z,1920.00
2018-06-14T07:13:25.815Z,1876.00
2018-06-14T07:14:25.809Z,1860.00
2018-06-14T07:15:25.803Z,1912.00
2018-06-14T07:16:25.779Z,1956.00
2018-06-14T07:17:25.782Z,1968.00
2018-06-14T07:21:01.277Z,2052.00
2018-06-14T07:21:59.402Z,2052.00
2018-06-14T07:26:09.509Z,2136.00
2018-06-14T07:26:58.691Z,2160.00
2018-06-14T07:27:59.012Z,2200.00
2018-06-14T07:30:25.654Z,2228.00
2018-06-14T07:30:54.123Z,2208.00
2018-06-14T07:31:26.133Z,2184.00
2018-06-14T07:32:26.133Z,2136.00
2018-06-14T07:33:26.268Z,2232.00
2018-06-14T07:34:26.110Z,2220.00
2018-06-14T07:35:26.100Z,2168.00
2018-06-14T07:36:26.093Z,2252.00
2018-06-14T07:37:26.084Z,2264.00
2018-06-14T07:38:26.072Z,2272.00
2018-06-14T07:39:26.093Z,2288.00
2018-06-14T07:40:26.578Z,2504.00
2018-06-14T07:41:26.036Z,2512.00
2018-06-14T07:42:26.241Z,2524.00
2018-06-14T07:43:26.021Z,2316.00
2018-06-14T07:44:25.997Z,2440.00
2018-06-14T07:45:26.007Z,2492.00
2018-06-14T07:46:25.997Z,2396.00
2018-06-14T07:53:52.246Z,2676.00
2018-06-14T07:54:52.270Z,2556.00
2018-06-14T07:55:52.228Z,2752.00
2018-06-14T07:56:52.217Z,2720.00
2018-06-14T07:57:52.308Z,2608.00
2018-06-14T07:58:52.271Z,2692.00
2018-06-14T07:59:53.235Z,2780.00
2018-06-14T08:00:52.596Z,2784.00
2018-06-14T08:01:54.525Z,2896.00
2018-06-14T08:02:52.154Z,3140.00
2018-06-14T08:13:06.044Z,2836.00
2018-06-14T08:13:06.554Z,2980.00
2018-06-14T08:15:48.572Z,2976.00
2018-06-14T08:16:44.293Z,2816.00
2018-06-14T08:17:44.321Z,2824.00
2018-06-14T08:18:44.367Z,2884.00
2018-06-14T08:21:11.513Z,2824.00
2018-06-14T08:26:11.977Z,6168.00
2018-06-14T08:27:01.198Z,7980.00
2018-06-14T08:28:01.315Z,10480.00
2018-06-14T08:30:34.968Z,18528.00
2018-06-14T08:31:02.534Z,37600.00
2018-06-14T08:31:35.491Z,49824.00
2018-06-14T08:32:35.475Z,33088.00
2018-06-14T08:33:35.528Z,24160.00
2018-06-14T08:34:35.582Z,6844.00
2018-06-14T08:35:36.004Z,26400.00
2018-06-14T08:36:35.994Z,22848.00
2018-06-14T08:37:35.432Z,21664.00
2018-06-14T08:38:35.458Z,17248.00
2018-06-14T08:39:36.122Z,10528.00
2018-06-14T08:40:35.411Z,52128.00
2018-06-14T08:44:50.125Z,33216.00
2018-06-14T08:47:13.883Z,43904.00
2018-06-14T08:50:43.713Z,46432.00
2018-06-14T08:51:39.136Z,48704.00
2018-06-14T08:52:39.368Z,47264.00
2018-06-14T08:53:39.182Z,49888.00
2018-06-14T08:54:39.134Z,53728.00
2018-06-14T08:57:30.214Z,63904.00
2018-06-14T08:58:30.169Z,64224.00
2018-06-14T08:59:30.167Z,5056.00
2018-06-14T09:00:30.199Z,85344.00
2018-06-14T09:03:56.002Z,77632.00
2018-06-14T09:04:55.247Z,72864.00
2018-06-14T09:05:55.104Z,46304.00
2018-06-14T09:06:55.145Z,9720.00
2018-06-14T09:07:55.151Z,72352.00
2018-06-14T09:08:55.102Z,2320.00
2018-06-14T09:09:55.696Z,28960.00
2018-06-14T09:10:55.102Z,72864.00
2018-06-14T09:11:55.152Z,67584.00
2018-06-14T09:17:38.127Z,70336.00
2018-06-14T09:18:25.112Z,3288.00
2018-06-14T09:22:02.690Z,49952.00
2018-06-14T09:22:58.544Z,4588.00
2018-06-14T09:23:58.387Z,78720.00
2018-06-14T09:24:58.357Z,75040.00
2018-06-14T09:25:58.314Z,78656.00
2018-06-14T09:26:58.308Z,28640.00
2018-06-14T09:27:58.430Z,7548.00
2018-06-14T09:28:58.315Z,7628.00
2018-06-14T09:29:58.937Z,79584.00
2018-06-14T09:30:58.306Z,70496.00
2018-06-14T09:31:58.487Z,6912.00
2018-06-14T09:32:58.521Z,45568.00
2018-06-14T09:33:59.405Z,80800.00
2018-06-14T09:34:58.288Z,7492.00
2018-06-14T09:35:58.400Z,86432.00
2018-06-14T09:36:58.558Z,17120.00
2018-06-14T09:37:58.305Z,81568.00
2018-06-14T09:38:58.289Z,83200.00
2018-06-14T09:39:58.276Z,86944.00
2018-06-14T09:40:58.267Z,86368.00
2018-06-14T09:41:58.333Z,91776.00
2018-06-14T09:42:58.339Z,90976.00
2018-06-14T09:43:58.414Z,87040.00
2018-06-14T09:44:58.406Z,81280.00
2018-06-14T09:45:58.416Z,84992.00
2018-06-14T09:46:58.333Z,82528.00
2018-06-14T09:47:58.413Z,4308.00
2018-06-14T09:48:58.311Z,5812.00
2018-06-14T09:49:58.966Z,7328.00
2018-06-14T09:50:58.289Z,55168.00
2018-06-14T09:51:58.898Z,7576.00
2018-06-14T09:52:58.291Z,58656.00
2018-06-14T09:53:58.652Z,73312.00
2018-06-14T09:54:58.939Z,77408.00
2018-06-14T09:55:58.798Z,54656.00
2018-06-14T09:56:58.292Z,40672.00
2018-06-14T09:57:58.294Z,4892.00
2018-06-14T09:58:58.295Z,87808.00
2018-06-14T09:59:58.665Z,4640.00
2018-06-14T10:00:59.003Z,4388.00
2018-06-14T10:02:10.676Z,74880.00
2018-06-14T10:02:58.296Z,64320.00
2018-06-14T10:03:58.296Z,79552.00
2018-06-14T10:04:58.944Z,55296.00
2018-06-14T10:05:58.280Z,75968.00
2018-06-14T10:06:58.984Z,22496.00
2018-06-14T10:07:58.347Z,12740.00
2018-06-14T10:08:58.285Z,14560.00
2018-06-14T10:09:58.740Z,83264.00
2018-06-14T10:10:58.287Z,81696.00
2018-06-14T10:11:59.410Z,87424.00
2018-06-14T10:12:58.596Z,93024.00
2018-06-14T10:13:58.817Z,96512.00
2018-06-14T10:14:58.330Z,103264.00
2018-06-14T10:15:58.314Z,105440.00
2018-06-14T10:16:58.320Z,102144.00
2018-06-14T10:17:58.307Z,96800.00
2018-06-14T10:18:58.573Z,16448.00
2018-06-14T10:19:58.334Z,8748.00
2018-06-14T10:20:58.727Z,19776.00
2018-06-14T10:21:58.657Z,32352.00
2018-06-14T10:22:58.614Z,104032.00
2018-06-14T10:23:58.392Z,113792.00
2018-06-14T10:24:58.306Z,98784.00
2018-06-14T10:25:58.602Z,92896.00
2018-06-14T10:26:58.319Z,91168.00
2018-06-14T10:27:58.388Z,94848.00
2018-06-14T10:28:58.328Z,104032.00
2018-06-14T10:29:58.389Z,102720.00
2018-06-14T10:30:58.345Z,39104.00
2018-06-14T10:31:58.364Z,5620.00
2018-06-14T10:32:58.331Z,6264.00
2018-06-14T10:33:58.804Z,93376.00
2018-06-14T10:34:58.353Z,91296.00
2018-06-14T10:35:58.377Z,94432.00
2018-06-14T10:36:58.966Z,94560.00
2018-06-14T10:38:03.974Z,76704.00
2018-06-14T10:38:58.471Z,29088.00
2018-06-14T10:39:58.369Z,60256.00
2018-06-14T10:40:58.365Z,6592.00
2018-06-14T10:41:58.370Z,67104.00
2018-06-14T10:42:58.907Z,84128.00
2018-06-14T10:43:58.390Z,87296.00
2018-06-14T10:44:58.459Z,88352.00
2018-06-14T10:45:58.399Z,89184.00
2018-06-14T10:46:58.388Z,80224.00
2018-06-14T10:47:58.410Z,78496.00
2018-06-14T10:48:58.410Z,7404.00
2018-06-14T10:49:59.042Z,10712.00
2018-06-14T10:50:58.400Z,5248.00
2018-06-14T10:51:58.432Z,4860.00
2018-06-14T10:52:58.804Z,13636.00
2018-06-14T10:53:59.302Z,22464.00
2018-06-14T10:54:58.487Z,23424.00
2018-06-14T10:55:58.925Z,7204.00
2018-06-14T10:56:58.620Z,14304.00
2018-06-14T10:57:58.592Z,14816.00
2018-06-14T11:01:12.166Z,20288.00
2018-06-14T11:02:11.812Z,6316.00
2018-06-14T11:03:11.805Z,20768.00
2018-06-14T11:04:12.607Z,98400.00
2018-06-14T11:05:11.862Z,88704.00
2018-06-14T11:06:12.020Z,5204.00
2018-06-14T11:07:11.823Z,8568.00
2018-06-14T11:08:12.382Z,86752.00
2018-06-14T11:09:12.377Z,68576.00
2018-06-14T11:10:21.722Z,87072.00
2018-06-14T11:11:12.193Z,65760.00
2018-06-14T11:12:11.859Z,8272.00
2018-06-14T11:13:11.862Z,7120.00
2018-06-14T11:14:11.882Z,9668.00
2018-06-14T11:15:11.832Z,4288.00
2018-06-14T11:16:12.696Z,3648.00
2018-06-14T11:17:13.007Z,3580.00
2018-06-14T11:18:12.162Z,4160.00
2018-06-14T11:21:32.713Z,94080.00
2018-06-14T11:22:27.851Z,95456.00
2018-06-14T11:25:39.715Z,3784.00
2018-06-14T11:26:28.605Z,5036.00
2018-06-14T11:27:28.756Z,88416.00
2018-06-14T11:28:28.622Z,10920.00
2018-06-14T11:29:28.765Z,45408.00
2018-06-14T11:30:28.597Z,9112.00
2018-06-14T11:31:28.929Z,5260.00
2018-06-14T11:32:28.591Z,5768.00
2018-06-14T11:33:28.599Z,50496.00
2018-06-14T11:34:28.595Z,5588.00
2018-06-14T11:35:29.244Z,79680.00
2018-06-14T11:36:28.634Z,80544.00
2018-06-14T11:37:42.023Z,63200.00
2018-06-14T11:40:21.605Z,9692.00
2018-06-14T11:41:16.873Z,6076.00
2018-06-14T11:42:16.829Z,5496.00
2018-06-14T11:43:17.589Z,28096.00
2018-06-14T11:44:17.874Z,46912.00
2018-06-14T11:45:17.588Z,76896.00
2018-06-14T11:46:16.847Z,56896.00
2018-06-14T11:47:17.619Z,8768.00
2018-06-14T11:48:17.443Z,8164.00
2018-06-14T11:49:16.825Z,7352.00
2018-06-14T11:50:17.076Z,6748.00
2018-06-14T11:51:16.909Z,7416.00
2018-06-14T11:52:16.821Z,6896.00
2018-06-14T11:53:16.826Z,6468.00
2018-06-14T11:54:16.871Z,7192.00
2018-06-14T11:55:16.822Z,7556.00
2018-06-14T11:56:25.179Z,6412.00
2018-06-14T11:57:16.904Z,6528.00
2018-06-14T11:58:16.808Z,7124.00
2018-06-14T11:59:16.809Z,7124.00
2018-06-14T12:00:16.863Z,6348.00
2018-06-14T12:01:16.843Z,7000.00
2018-06-14T12:02:17.216Z,6864.00
2018-06-14T12:03:16.799Z,5556.00
2018-06-14T12:04:16.824Z,5040.00
2018-06-14T12:05:16.919Z,4576.00
2018-06-14T12:06:17.159Z,4740.00
2018-06-14T12:07:16.812Z,4748.00
2018-06-14T12:08:16.811Z,4776.00
2018-06-14T12:09:16.840Z,4716.00
2018-06-14T12:10:16.790Z,4308.00
2018-06-14T12:11:17.023Z,3952.00
2018-06-14T12:12:16.801Z,4032.00
2018-06-14T12:14:15.690Z,4320.00
2018-06-14T12:14:16.855Z,4440.00
2018-06-14T12:17:52.657Z,6800.00
2018-06-14T12:18:52.586Z,6720.00
2018-06-14T12:19:53.183Z,5944.00
2018-06-14T12:20:52.970Z,6224.00
2018-06-14T12:21:52.585Z,6424.00
2018-06-14T12:22:52.574Z,6024.00
2018-06-14T12:23:53.221Z,5640.00
2018-06-14T12:24:52.573Z,5980.00
2018-06-14T12:25:52.562Z,6464.00
2018-06-14T12:26:52.547Z,7228.00
2018-06-14T12:28:06.091Z,5052.00
2018-06-14T12:28:52.560Z,6980.00
2018-06-14T12:29:52.889Z,13536.00
2018-06-14T12:30:52.577Z,9792.00
2018-06-14T12:31:52.588Z,7400.00
2018-06-14T12:32:52.532Z,17760.00
2018-06-14T12:33:52.686Z,7052.00
2018-06-14T12:34:53.096Z,7720.00
2018-06-14T12:35:52.863Z,5904.00
2018-06-14T12:36:53.209Z,6164.00
2018-06-14T12:37:52.516Z,5632.00
2018-06-14T12:38:52.740Z,5772.00
2018-06-14T12:39:53.210Z,3808.00
2018-06-14T12:40:52.574Z,5972.00
2018-06-14T12:41:52.762Z,6772.00
2018-06-14T12:42:52.996Z,6320.00
2018-06-14T12:43:52.512Z,5744.00
2018-06-14T12:44:53.255Z,5448.00
2018-06-14T12:45:53.294Z,6260.00
2018-06-14T12:46:52.517Z,6116.00
2018-06-14T12:47:52.468Z,6176.00
2018-06-14T12:48:52.542Z,6504.00
2018-06-14T12:49:55.134Z,6792.00
2018-06-14T12:50:52.563Z,6472.00
2018-06-14T12:51:52.476Z,6276.00
2018-06-14T12:52:52.464Z,6284.00
2018-06-14T12:53:52.460Z,6420.00
2018-06-14T12:54:53.232Z,6448.00
2018-06-14T12:55:52.464Z,6056.00
2018-06-14T12:56:53.315Z,6380.00
2018-06-14T12:57:52.432Z,6236.00
2018-06-14T12:58:53.222Z,6248.00
2018-06-14T12:59:52.420Z,6136.00
2018-06-14T13:00:52.442Z,6104.00
2018-06-14T13:01:52.642Z,5896.00
2018-06-14T13:02:53.083Z,5476.00
2018-06-14T13:03:53.196Z,5476.00
2018-06-14T13:04:53.198Z,6220.00
2018-06-14T13:05:53.165Z,6708.00
2018-06-14T13:06:53.062Z,6848.00
2018-06-14T13:07:53.954Z,6620.00
2018-06-14T13:08:53.293Z,7132.00
2018-06-14T13:09:53.049Z,7096.00
2018-06-14T13:10:53.040Z,6808.00
2018-06-14T13:11:53.093Z,6796.00
2018-06-14T13:12:52.967Z,6676.00
2018-06-14T13:13:53.875Z,6400.00
2018-06-14T13:14:53.561Z,6196.00
2018-06-14T13:15:53.264Z,6320.00
2018-06-14T13:16:53.076Z,6088.00
2018-06-14T13:17:53.694Z,6036.00
2018-06-14T13:18:53.166Z,5880.00
2018-06-14T13:19:53.028Z,5724.00
2018-06-14T13:20:52.722Z,5424.00
2018-06-14T13:21:52.970Z,5172.00
2018-06-14T13:22:54.014Z,5136.00